ADDS METAR Data INFO
IDs: Format: Raw Decoded Include TAF

Data at: 0405 UTC 11 Dec 2017

KBAZ 110351Z AUTO 29003KT 10SM CLR 07/02 A3037 RMK AO2 SLP284 T00670017
KBAZ 110251Z AUTO 29004KT 10SM CLR 08/02 A3037 RMK AO2 SLP284 T00830022 50005
KBAZ 110151Z AUTO 26005KT 10SM CLR 10/M01 A3038 RMK AO2 SLP287 T01001006
KBAZ 110051Z 22005KT 10SM CLR 11/01 A3036 RMK AO2 SLP282 T01110006
KBAZ 102351Z AUTO 21005KT 10SM CLR 14/01 A3035 RMK AO2 SLP280 T01440006 10194 20128 56004
KBAZ 102251Z AUTO 24006KT 10SM CLR 17/00 A3036 RMK AO2 SLP281 T01720000
KBAZ 102151Z AUTO 23009KT 10SM CLR 19/M02 A3036 RMK AO2 SLP279 T01891017
KBAZ 102051Z 23006KT 10SM CLR 19/M02 A3037 RMK AO2 SLP282 T01941017 56026
KBAZ 101951Z 23005KT 10SM CLR 18/M03 A3038 RMK AO2 SLP286 T01831028
KBAZ 101851Z VRB04KT 10SM CLR 18/M03 A3041 RMK AO2 SLP296 T01831028
KBAZ 101751Z 27004KT 10SM CLR 17/M02 A3045 RMK AO2 SLP308 T01671017 10167 20011 58001
KBAZ 101651Z 25004KT 10SM CLR 14/M01 A3047 RMK AO2 SLP315 T01441011
KBAZ 101551Z 29005KT 10SM CLR 12/03 A3046 RMK AO2 SLP316 T01170028
KBAZ 101451Z 31004KT 10SM CLR 06/02 A3045 RMK AO2 SLP311 T00610022 51017
KBAZ 101351Z 30005KT 10SM CLR 02/00 A3043 RMK AO2 SLP308 T00220000
KBAZ 101251Z 31006KT 10SM CLR 02/00 A3041 RMK AO2 SLP300 T00170000
KBAZ 101151Z AUTO 33006KT 10SM CLR 01/M01 A3040 RMK AO2 SLP294 T00111006 10044 20006 53003
KBAZ 101051Z AUTO 30004KT 10SM CLR 02/00 A3039 RMK AO2 SLP288 T00170000
KBAZ 100951Z AUTO 32006KT 10SM CLR 02/00 A3038 RMK AO2 SLP287 T00170000
KBAZ 100851Z AUTO 30006KT 10SM CLR 03/01 A3039 RMK AO2 SLP289 T00330011 50004
KBAZ 100751Z AUTO 32005KT 10SM CLR 04/00 A3039 RMK AO2 SLP289 T00390000
KBAZ 100651Z AUTO 33007KT 10SM CLR 04/01 A3038 RMK AO2 SLP287 T00390011
KBAZ 100551Z AUTO 34004KT 10SM CLR 04/01 A3038 RMK AO2 SLP285 T00440006 10128 20039 402060011 51015
KBAZ 100451Z AUTO 32005KT 10SM CLR 06/01 A3037 RMK AO2 SLP283 T00560006
KBAZ 100351Z AUTO 33005KT 10SM CLR 07/00 A3035 RMK AO2 SLP277 T00670000
KBAZ 100251Z AUTO 33005KT 10SM CLR 08/01 A3033 RMK AO2 SLP271 T00780006 51022
KBAZ 100151Z AUTO 33005KT 10SM CLR 08/01 A3031 RMK AO2 SLP266 T00780006
KBAZ 100051Z AUTO 32005KT 10SM CLR 11/01 A3029 RMK AO2 SLP258 T01060006
KBAZ 092351Z AUTO 36003KT 10SM CLR 13/01 A3026 RMK AO2 SLP248 T01280011 10206 20128 53010
KBAZ 092251Z AUTO 02007KT 10SM CLR 18/M02 A3025 RMK AO2 SLP241 T01781017
KBAZ 092151Z AUTO 34012G22KT 10SM CLR 20/M04 A3024 RMK AO2 SLP237 T02001039
KBAZ 092051Z 34011G23KT 10SM CLR 20/M03 A3024 RMK AO2 SLP237 T02001033 56020
KBAZ 091951Z 34019G24KT 10SM CLR 20/M03 A3024 RMK AO2 SLP238 T02001033
KBAZ 091851Z 35016KT 10SM CLR 19/M03 A3026 RMK AO2 SLP246 T01891028
KBAZ 091751Z 35011KT 10SM CLR 18/M01 A3029 RMK AO2 SLP257 T01781011 10178 20039 50002
KBAZ 091651Z VRB06KT 10SM CLR 15/M01 A3031 RMK AO2 SLP265 T01501006